createdAt,value
2019-03-26T00:04:53.032Z,20.8
2019-03-26T00:14:56.537Z,20.8
2019-03-26T00:25:00.224Z,20.8
2019-03-26T00:35:03.919Z,20.7
2019-03-26T00:45:07.463Z,20.6
2019-03-26T00:55:21.892Z,20.6
2019-03-26T01:05:26.712Z,20.5
2019-03-26T01:15:30.216Z,20.5
2019-03-26T01:25:33.733Z,20.5
2019-03-26T01:35:37.221Z,20.8
2019-03-26T01:45:40.725Z,20.6
2019-03-26T01:55:44.244Z,20.5
2019-03-26T02:05:47.735Z,20.5
2019-03-26T02:15:51.247Z,20.5
2019-03-26T02:25:54.727Z,20.5
2019-03-26T02:35:58.203Z,20.5
2019-03-26T02:46:01.743Z,20.4
2019-03-26T02:56:05.349Z,20.4
2019-03-26T03:06:08.926Z,20.4
2019-03-26T03:16:12.412Z,20.4
2019-03-26T03:26:15.940Z,20.5
2019-03-26T03:36:19.449Z,20.5
2019-03-26T03:46:22.977Z,20.6
2019-03-26T03:56:26.489Z,20.5
2019-03-26T04:06:30.023Z,20.5
2019-03-26T04:16:33.539Z,20.4
2019-03-26T04:26:37.082Z,20.4
2019-03-26T04:36:40.576Z,20.4
2019-03-26T04:46:44.132Z,20.4
2019-03-26T04:56:47.653Z,20.5
2019-03-26T05:06:51.143Z,20.4
2019-03-26T05:16:54.631Z,20.3
2019-03-26T05:26:58.139Z,20.4
2019-03-26T05:37:01.636Z,20.4
2019-03-26T05:47:05.251Z,20.4
2019-03-26T05:57:08.797Z,20.4
2019-03-26T06:07:12.317Z,20.6
2019-03-26T06:17:15.795Z,20.8
2019-03-26T06:27:19.299Z,21.1
2019-03-26T06:37:22.767Z,16
2019-03-26T06:47:26.359Z,21.2
2019-03-26T06:57:35.238Z,22.2
2019-03-26T07:07:39.592Z,22.5
2019-03-26T07:17:43.096Z,22.5
2019-03-26T07:27:46.600Z,22.3
2019-03-26T07:37:50.121Z,22.5
2019-03-26T07:47:53.730Z,22.6
2019-03-26T07:57:57.410Z,22.6
2019-03-26T08:08:00.910Z,22.7
2019-03-26T08:18:04.491Z,22.7
2019-03-26T08:28:08.339Z,22.9
2019-03-26T08:38:13.331Z,23
2019-03-26T08:48:17.103Z,23.1
2019-03-26T08:58:20.621Z,23.1
2019-03-26T09:08:25.452Z,23.1
2019-03-26T09:23:51.749Z,23.3
2019-03-26T09:33:55.297Z,23.5
2019-03-26T09:43:58.831Z,23.6
2019-03-26T09:54:02.320Z,23.6
2019-03-26T10:04:05.835Z,23.7
2019-03-26T10:14:09.415Z,23.8
2019-03-26T10:24:13.123Z,23.5
2019-03-26T10:34:16.831Z,23.5
2019-03-26T10:44:20.337Z,23.6
2019-03-26T10:54:23.868Z,23.7
2019-03-26T11:04:27.496Z,23.8
2019-03-26T11:14:31.836Z,24
2019-03-26T11:24:36.000Z,22.8
2019-03-26T11:34:39.507Z,23.6
2019-03-26T11:44:43.224Z,23.7
2019-03-26T11:54:47.086Z,23.8
2019-03-26T12:04:51.042Z,23.8
2019-03-26T12:14:54.799Z,23.9
2019-03-26T12:24:59.076Z,24
2019-03-26T12:35:02.547Z,24.1
2019-03-26T12:45:07.048Z,24.1
2019-03-26T12:55:11.082Z,24
2019-03-26T13:05:14.585Z,23.9
2019-03-26T13:15:18.097Z,23.9
2019-03-26T13:25:21.621Z,24
2019-03-26T13:35:25.082Z,24.1
2019-03-26T13:45:28.639Z,24.3
2019-03-26T13:55:32.243Z,24.2
2019-03-26T14:05:35.794Z,24.2
2019-03-26T14:15:39.539Z,24.3
2019-03-26T14:25:43.024Z,24.3
2019-03-26T14:35:46.567Z,24.2
2019-03-26T14:45:50.091Z,24.2
2019-03-26T14:55:53.592Z,24.3
2019-03-26T15:05:57.122Z,24.3
2019-03-26T15:16:00.663Z,24.3
2019-03-26T15:26:04.153Z,24.3
2019-03-26T15:36:07.709Z,24.3
2019-03-26T15:46:11.420Z,24.3
2019-03-26T15:56:14.991Z,24.3
2019-03-26T16:06:18.529Z,24.3
2019-03-26T16:16:22.042Z,24.3
2019-03-26T16:26:25.558Z,24.4
2019-03-26T16:36:29.031Z,24.4
2019-03-26T16:46:32.542Z,24.3
2019-03-26T16:56:39.773Z,24.3
2019-03-26T17:06:43.289Z,24.3
2019-03-26T17:16:46.790Z,24.3
2019-03-26T17:26:50.313Z,24.2
2019-03-26T17:36:53.851Z,24.2
2019-03-26T17:46:57.358Z,24.2
2019-03-26T17:57:00.877Z,24.1
2019-03-26T18:07:05.529Z,24.1
2019-03-26T18:17:09.275Z,24
2019-03-26T18:27:12.788Z,24
2019-03-26T18:37:16.272Z,23.9
2019-03-26T18:47:19.797Z,23.8
2019-03-26T18:57:23.298Z,23.7
2019-03-26T19:07:26.822Z,23.7
2019-03-26T19:17:31.324Z,23.6
2019-03-26T19:27:34.827Z,23.5
2019-03-26T19:37:38.331Z,23.3
2019-03-26T19:47:41.821Z,23.2
2019-03-26T19:57:45.338Z,23.1
2019-03-26T20:07:48.927Z,23
2019-03-26T20:17:52.432Z,23
2019-03-26T20:27:55.930Z,22.9
2019-03-26T20:37:59.411Z,22.8
2019-03-26T20:48:02.927Z,22.7
2019-03-26T20:58:06.460Z,22.7
2019-03-26T21:08:09.986Z,22.6
2019-03-26T21:18:13.566Z,22.5
2019-03-26T21:28:17.094Z,22.5
2019-03-26T21:38:20.586Z,22.4
2019-03-26T21:48:24.151Z,22.4
2019-03-26T21:58:27.656Z,22.3
2019-03-26T22:08:31.193Z,22.3
2019-03-26T22:18:34.694Z,22.2
2019-03-26T22:28:38.199Z,22.1
2019-03-26T22:38:41.711Z,22.1
2019-03-26T22:48:45.233Z,22.1
2019-03-26T22:58:48.738Z,22
2019-03-26T23:08:52.263Z,21.9
2019-03-26T23:18:55.795Z,21.9
2019-03-26T23:28:59.318Z,21.8
2019-03-26T23:39:02.814Z,21.8
2019-03-26T23:49:06.324Z,21.7
2019-03-26T23:59:09.836Z,21.7
